Time;durP1;ratioP1;P1;durP2;ratioP2;P2;SDS_P1;SDS_P2;PMS_P1;PMS_P2;Temp;Humidity;BMP_temperature;BMP_pressure;BME280_temperature;BME280_humidity;BME280_pressure;Samples;Min_cycle;Max_cycle;Signal;HPM_P1;HPM_P2
2023/05/31 00:00:09;;;;;;;2.35;1.20;;;;;18.80;102529.00;;;;5090567;28;20206;-78
2023/05/31 00:02:36;;;;;;;2.75;1.85;;;;;18.80;102533.00;;;;5083455;28;20660;-78
2023/05/31 00:05:04;;;;;;;2.38;1.77;;;;;18.80;102524.00;;;;5089078;28;20229;-78
2023/05/31 00:07:31;;;;;;;2.25;1.45;;;;;18.80;102521.00;;;;5089147;28;20656;-78
2023/05/31 00:09:58;;;;;;;3.70;1.33;;;;;18.70;102525.00;;;;5090044;28;20202;-78
2023/05/31 00:12:26;;;;;;;2.80;1.92;;;;;18.70;102523.00;;;;5089245;28;20194;-78
2023/05/31 00:14:55;;;;;;;3.47;2.03;;;;;18.70;102523.00;;;;5090093;28;20237;-78
2023/05/31 00:17:22;;;;;;;2.92;1.33;;;;;18.70;102518.00;;;;5088153;28;20202;-78
2023/05/31 00:19:50;;;;;;;1.85;1.50;;;;;18.60;102520.00;;;;5090088;28;20202;-78
2023/05/31 00:22:17;;;;;;;3.05;1.85;;;;;18.60;102518.00;;;;5089376;28;20623;-78
2023/05/31 00:24:44;;;;;;;3.08;2.05;;;;;18.60;102520.00;;;;5089986;28;20691;-78
2023/05/31 00:27:11;;;;;;;1.80;1.20;;;;;18.60;102518.00;;;;5089577;28;20202;-78
2023/05/31 00:29:39;;;;;;;4.78;2.60;;;;;18.60;102517.00;;;;5086172;28;20198;-78
2023/05/31 00:32:08;;;;;;;3.08;2.05;;;;;18.50;102516.00;;;;5089095;28;20194;-78
2023/05/31 00:34:35;;;;;;;2.45;1.27;;;;;18.60;102510.00;;;;5090768;28;20293;-78
2023/05/31 00:37:02;;;;;;;2.65;1.55;;;;;18.50;102520.00;;;;5090172;28;20194;-78
2023/05/31 00:39:30;;;;;;;2.45;1.58;;;;;18.50;102516.00;;;;5087857;28;20202;-78
2023/05/31 00:41:57;;;;;;;2.75;1.85;;;;;18.50;102515.00;;;;5088483;28;20194;-78
2023/05/31 00:44:24;;;;;;;4.20;2.03;;;;;18.50;102512.00;;;;5088110;28;20229;-78
2023/05/31 00:46:52;;;;;;;2.45;1.83;;;;;18.50;102514.00;;;;5088581;28;20194;-78
2023/05/31 00:49:21;;;;;;;2.13;1.80;;;;;18.40;102510.00;;;;5087787;28;20578;-78
2023/05/31 00:51:48;;;;;;;2.80;1.85;;;;;18.40;102514.00;;;;5089713;28;20202;-78
2023/05/31 00:54:15;;;;;;;2.42;1.90;;;;;18.40;102503.00;;;;5072495;28;20214;-78
2023/05/31 00:56:43;;;;;;;2.08;1.88;;;;;18.40;102508.00;;;;5085757;28;20612;-78
2023/05/31 00:59:10;;;;;;;5.38;1.85;;;;;18.30;102508.00;;;;5089975;28;20234;-78
2023/05/31 01:01:38;;;;;;;6.07;2.25;;;;;18.30;102504.00;;;;5076601;28;20195;-78
2023/05/31 01:04:06;;;;;;;3.50;2.42;;;;;18.30;102509.00;;;;5089366;28;20221;-78
2023/05/31 01:06:35;;;;;;;4.53;1.95;;;;;18.30;102516.00;;;;5090358;28;20698;-78
2023/05/31 01:09:05;;;;;;;5.22;2.17;;;;;18.20;102519.00;;;;5078986;28;20195;-78
2023/05/31 01:11:46;;;;;;;4.20;1.90;;;;;18.20;102515.00;;;;5074675;28;20206;-79
2023/05/31 01:14:24;;;;;;;4.15;2.08;;;;;18.10;102518.00;;;;5088064;28;20629;-78
2023/05/31 01:16:55;;;;;;;4.13;1.95;;;;;18.20;102520.00;;;;5089815;28;20206;-78
2023/05/31 01:19:40;;;;;;;3.58;1.77;;;;;18.00;102511.00;;;;5087870;28;20245;-78
2023/05/31 01:22:23;;;;;;;2.53;1.50;;;;;18.00;102519.00;;;;5089638;28;20198;-78
2023/05/31 01:25:05;;;;;;;2.95;1.77;;;;;18.00;102512.00;;;;5088837;28;20221;-78
2023/05/31 01:27:35;;;;;;;3.47;2.00;;;;;18.10;102517.00;;;;5088981;28;20196;-78
2023/05/31 01:30:05;;;;;;;3.42;2.10;;;;;18.00;102512.00;;;;5089041;28;20198;-78
2023/05/31 01:32:34;;;;;;;3.15;1.80;;;;;18.00;102510.00;;;;5088828;28;20272;-79
2023/05/31 01:35:02;;;;;;;2.72;1.88;;;;;18.00;102505.00;;;;5089442;28;20206;-79
2023/05/31 01:37:29;;;;;;;3.58;2.05;;;;;18.00;102507.00;;;;5088720;28;20202;-78
2023/05/31 01:39:57;;;;;;;4.18;1.83;;;;;18.00;102512.00;;;;5088498;28;20202;-78
2023/05/31 01:42:25;;;;;;;4.40;1.98;;;;;17.90;102517.00;;;;5087602;28;20199;-78
2023/05/31 01:44:55;;;;;;;5.03;2.60;;;;;17.90;102512.00;;;;5088948;28;20221;-78
2023/05/31 01:47:24;;;;;;;3.45;2.08;;;;;17.90;102509.00;;;;5088926;28;20206;-78
2023/05/31 01:49:52;;;;;;;3.60;2.13;;;;;17.80;102505.00;;;;5088315;28;20680;-78
2023/05/31 01:52:21;;;;;;;3.20;2.33;;;;;17.80;102507.00;;;;5088000;28;20198;-78
2023/05/31 01:54:49;;;;;;;3.47;2.15;;;;;17.80;102500.00;;;;5085773;28;20209;-78
2023/05/31 01:57:18;;;;;;;4.25;2.58;;;;;17.80;102501.00;;;;5083054;28;20724;-79
2023/05/31 01:59:46;;;;;;;4.78;3.05;;;;;17.80;102511.00;;;;5087571;28;20194;-79
2023/05/31 02:02:15;;;;;;;4.32;2.15;;;;;17.80;102517.00;;;;5088503;28;20194;-78
2023/05/31 02:04:43;;;;;;;4.85;1.98;;;;;17.70;102507.00;;;;5088987;28;20229;-78
2023/05/31 02:07:12;;;;;;;4.93;2.25;;;;;17.70;102519.00;;;;5088804;28;20533;-78
2023/05/31 02:09:39;;;;;;;2.90;1.88;;;;;17.70;102501.00;;;;5087623;28;20210;-78
2023/05/31 02:12:07;;;;;;;3.65;2.08;;;;;17.70;102503.00;;;;5087590;28;20217;-78
2023/05/31 02:14:35;;;;;;;3.58;2.50;;;;;17.70;102495.00;;;;5087185;28;20206;-78
2023/05/31 02:17:02;;;;;;;2.60;2.00;;;;;17.60;102506.00;;;;5088855;28;20202;-78
2023/05/31 02:19:31;;;;;;;3.28;1.90;;;;;17.60;102502.00;;;;5087638;28;20204;-78
2023/05/31 02:21:58;;;;;;;3.58;2.35;;;;;17.60;102502.00;;;;5088483;28;20198;-79
2023/05/31 02:24:28;;;;;;;2.75;1.88;;;;;17.60;102505.00;;;;5085779;28;20307;-78
2023/05/31 02:26:55;;;;;;;4.75;2.17;;;;;17.50;102508.00;;;;5088528;28;20281;-78
2023/05/31 02:29:22;;;;;;;2.80;1.83;;;;;17.50;102500.00;;;;5086751;28;20200;-78
2023/05/31 02:31:50;;;;;;;3.38;1.90;;;;;17.50;102498.00;;;;5088544;28;20201;-78
2023/05/31 02:34:18;;;;;;;6.97;2.33;;;;;17.50;102500.00;;;;5087930;28;20244;-78
2023/05/31 02:36:47;;;;;;;2.83;2.22;;;;;17.40;102491.00;;;;5088126;28;20202;-78
2023/05/31 02:39:14;;;;;;;2.70;1.80;;;;;17.40;102488.00;;;;5087915;28;20660;-78
2023/05/31 02:41:41;;;;;;;2.83;1.90;;;;;17.40;102493.00;;;;5088658;28;20602;-78
2023/05/31 02:44:08;;;;;;;3.25;1.70;;;;;17.40;102494.00;;;;5087216;28;20209;-78
2023/05/31 02:46:36;;;;;;;4.75;2.25;;;;;17.30;102479.00;;;;5087591;28;20205;-78
2023/05/31 02:49:03;;;;;;;3.15;2.22;;;;;17.30;102488.00;;;;5088111;28;20202;-78
2023/05/31 02:51:30;;;;;;;3.70;2.28;;;;;17.30;102487.00;;;;5087599;28;20206;-78
2023/05/31 02:54:02;;;;;;;2.65;2.00;;;;;17.20;102484.00;;;;5088765;28;20214;-78
2023/05/31 02:56:30;;;;;;;4.97;2.55;;;;;17.20;102491.00;;;;5086118;28;20933;-77
2023/05/31 02:58:57;;;;;;;3.08;2.00;;;;;17.20;102482.00;;;;5088415;28;20198;-78
2023/05/31 03:01:25;;;;;;;3.03;1.70;;;;;17.20;102482.00;;;;5087393;28;20194;-78
2023/05/31 03:03:52;;;;;;;4.68;2.45;;;;;17.10;102472.00;;;;5072568;28;20214;-78
2023/05/31 03:06:19;;;;;;;4.10;2.30;;;;;17.10;102469.00;;;;5087042;28;20222;-78
2023/05/31 03:08:47;;;;;;;2.80;2.00;;;;;17.10;102470.00;;;;5092462;28;20570;-78
2023/05/31 03:11:20;;;;;;;4.07;2.50;;;;;17.00;102476.00;;;;5091860;28;20202;-78
2023/05/31 03:13:47;;;;;;;2.03;1.52;;;;;17.10;102473.00;;;;5090778;28;20194;-79
2023/05/31 03:16:16;;;;;;;3.08;1.85;;;;;17.10;102476.00;;;;5091504;28;20206;-79
2023/05/31 03:18:43;;;;;;;3.58;2.65;;;;;17.10;102475.00;;;;5090812;28;20297;-78
2023/05/31 03:21:11;;;;;;;3.90;2.78;;;;;17.00;102475.00;;;;5092001;28;20198;-78
2023/05/31 03:23:39;;;;;;;3.67;1.88;;;;;17.00;102474.00;;;;5090880;28;20202;-78
2023/05/31 03:26:06;;;;;;;3.03;2.17;;;;;17.00;102467.00;;;;5090585;28;20222;-78
2023/05/31 03:28:35;;;;;;;3.80;2.10;;;;;17.00;102472.00;;;;5091097;28;20213;-78
2023/05/31 03:31:02;;;;;;;3.45;2.38;;;;;17.00;102465.00;;;;5090012;28;20202;-78
2023/05/31 03:33:31;;;;;;;3.67;2.40;;;;;17.00;102466.00;;;;5088337;28;20222;-78
2023/05/31 03:35:58;;;;;;;3.33;2.50;;;;;17.00;102467.00;;;;5087702;28;20213;-78
2023/05/31 03:38:25;;;;;;;2.90;2.17;;;;;17.00;102464.00;;;;5088348;28;20217;-78
2023/05/31 03:40:54;;;;;;;5.05;2.90;;;;;16.90;102454.00;;;;5090906;28;20289;-78
2023/05/31 03:43:21;;;;;;;4.68;2.65;;;;;16.90;102462.00;;;;5089173;28;20247;-77
2023/05/31 03:45:50;;;;;;;3.53;2.38;;;;;16.90;102471.00;;;;5090676;28;20658;-78
2023/05/31 03:48:17;;;;;;;3.22;1.75;;;;;16.90;102470.00;;;;5091007;28;20191;-78
2023/05/31 03:50:45;;;;;;;3.03;2.05;;;;;16.90;102470.00;;;;5086169;28;20209;-78
2023/05/31 03:53:12;;;;;;;3.80;2.83;;;;;16.90;102472.00;;;;5090440;28;20231;-78
2023/05/31 03:55:39;;;;;;;3.13;2.10;;;;;16.90;102475.00;;;;5091874;28;20202;-78
2023/05/31 03:58:07;;;;;;;4.07;2.38;;;;;16.90;102481.00;;;;5090820;28;20201;-78
2023/05/31 04:00:34;;;;;;;3.13;2.20;;;;;16.80;102477.00;;;;5091291;28;20209;-78
2023/05/31 04:03:03;;;;;;;3.40;2.40;;;;;16.80;102481.00;;;;5091833;28;20202;-78
2023/05/31 04:05:30;;;;;;;4.13;2.35;;;;;16.80;102479.00;;;;5089802;28;20220;-78
2023/05/31 04:07:59;;;;;;;5.03;2.22;;;;;16.80;102478.00;;;;5091163;28;20194;-78
2023/05/31 04:10:26;;;;;;;3.70;2.70;;;;;16.80;102481.00;;;;5088033;28;20209;-78
2023/05/31 04:12:53;;;;;;;3.05;1.95;;;;;16.80;102488.00;;;;5071088;28;20203;-78
2023/05/31 04:15:21;;;;;;;4.63;2.80;;;;;16.80;102486.00;;;;5077074;28;20198;-78
2023/05/31 04:17:48;;;;;;;3.90;2.47;;;;;16.80;102489.00;;;;5090195;28;20201;-77
2023/05/31 04:20:18;;;;;;;3.22;2.50;;;;;16.80;102491.00;;;;5090041;28;20676;-78
2023/05/31 04:22:45;;;;;;;5.57;2.63;;;;;16.80;102489.00;;;;5091276;28;20194;-78
2023/05/31 04:25:12;;;;;;;3.58;2.75;;;;;16.90;102497.00;;;;5089107;28;20599;-78
2023/05/31 04:27:41;;;;;;;3.53;2.40;;;;;16.90;102499.00;;;;5081675;28;20622;-78
2023/05/31 04:30:09;;;;;;;3.17;2.03;;;;;16.90;102497.00;;;;5077096;28;20217;-78
2023/05/31 04:32:36;;;;;;;4.57;3.00;;;;;16.90;102485.00;;;;5090641;28;20230;-78
2023/05/31 04:35:04;;;;;;;5.28;2.67;;;;;16.90;102488.00;;;;5090058;28;20255;-78
2023/05/31 04:37:33;;;;;;;5.35;3.35;;;;;16.90;102485.00;;;;5090402;28;20198;-78
2023/05/31 04:40:02;;;;;;;6.53;3.05;;;;;17.00;102490.00;;;;5089352;28;20194;-77
2023/05/31 04:42:29;;;;;;;5.63;2.67;;;;;17.00;102494.00;;;;5089042;28;20190;-78
2023/05/31 04:45:00;;;;;;;4.45;2.67;;;;;17.00;102492.00;;;;5087005;28;20198;-78
2023/05/31 04:47:28;;;;;;;4.38;2.90;;;;;17.00;102490.00;;;;5088916;28;20198;-78
2023/05/31 04:49:56;;;;;;;3.33;2.38;;;;;17.00;102491.00;;;;5089079;28;20547;-79
2023/05/31 04:52:26;;;;;;;3.80;2.70;;;;;17.00;102492.00;;;;5088251;28;20203;-78
2023/05/31 04:54:55;;;;;;;3.55;2.50;;;;;17.10;102499.00;;;;5089456;28;20285;-78
2023/05/31 04:57:23;;;;;;;5.63;2.92;;;;;17.10;102497.00;;;;5088490;28;20205;-78
2023/05/31 04:59:50;;;;;;;4.28;2.97;;;;;17.10;102497.00;;;;5087290;28;20194;-78
2023/05/31 05:02:19;;;;;;;5.38;3.40;;;;;17.10;102493.00;;;;5083994;28;20544;-78
2023/05/31 05:04:47;;;;;;;5.65;3.10;;;;;17.20;102496.00;;;;5090032;28;20292;-79
2023/05/31 05:07:16;;;;;;;5.63;3.42;;;;;17.20;102497.00;;;;5089511;28;20201;-79
2023/05/31 05:09:43;;;;;;;5.00;3.33;;;;;17.20;102489.00;;;;5089275;28;20301;-78
2023/05/31 05:12:12;;;;;;;5.07;3.17;;;;;17.20;102494.00;;;;5089816;28;20244;-78
2023/05/31 05:14:39;;;;;;;5.72;3.03;;;;;17.30;102501.00;;;;5089558;28;20675;-78
2023/05/31 05:17:07;;;;;;;5.18;3.03;;;;;17.30;102497.00;;;;5089527;28;20202;-78
2023/05/31 05:19:34;;;;;;;5.60;3.35;;;;;17.40;102503.00;;;;5088513;28;20205;-78
2023/05/31 05:22:02;;;;;;;5.75;3.70;;;;;17.40;102507.00;;;;5087974;28;20198;-79
2023/05/31 05:24:29;;;;;;;10.10;3.97;;;;;17.50;102510.00;;;;5083969;28;20198;-78
2023/05/31 05:26:58;;;;;;;4.95;3.15;;;;;17.50;102503.00;;;;5086669;28;20254;-79
2023/05/31 05:29:27;;;;;;;6.20;3.90;;;;;17.50;102494.00;;;;5085180;28;20199;-78
2023/05/31 05:31:54;;;;;;;4.65;3.33;;;;;17.60;102501.00;;;;5078850;28;20197;-80
2023/05/31 05:34:22;;;;;;;6.05;3.55;;;;;17.70;102500.00;;;;5080423;28;20221;-79
2023/05/31 05:36:49;;;;;;;4.63;3.10;;;;;17.70;102505.00;;;;5079517;28;20222;-80
2023/05/31 05:39:16;;;;;;;6.03;3.45;;;;;17.80;102510.00;;;;5083325;28;20197;-80
2023/05/31 05:41:44;;;;;;;6.40;3.78;;;;;17.90;102503.00;;;;5076160;28;20206;-80
2023/05/31 05:44:11;;;;;;;4.85;3.40;;;;;17.90;102508.00;;;;5081722;28;20201;-80
2023/05/31 05:46:40;;;;;;;4.70;3.15;;;;;18.00;102505.00;;;;5078649;28;20221;-80
2023/05/31 05:49:07;;;;;;;5.57;3.50;;;;;18.00;102506.00;;;;5081876;28;20195;-80
2023/05/31 05:51:35;;;;;;;7.47;3.78;;;;;18.10;102507.00;;;;5080624;28;20213;-80
2023/05/31 05:54:03;;;;;;;6.85;4.20;;;;;18.20;102513.00;;;;5081364;28;20217;-80
2023/05/31 05:56:30;;;;;;;5.97;3.70;;;;;18.20;102506.00;;;;5078649;28;20190;-79
2023/05/31 05:58:57;;;;;;;5.88;3.67;;;;;18.30;102510.00;;;;5083747;28;20194;-80
2023/05/31 06:01:26;;;;;;;12.52;3.92;;;;;18.40;102512.00;;;;5081226;28;20201;-81
2023/05/31 06:03:56;;;;;;;5.55;3.30;;;;;18.40;102520.00;;;;5078369;28;20205;-80
2023/05/31 06:06:23;;;;;;;4.80;3.53;;;;;18.50;102514.00;;;;5081888;28;20224;-79
2023/05/31 06:08:52;;;;;;;5.78;4.00;;;;;18.60;102512.00;;;;5086189;28;20194;-81
2023/05/31 06:11:19;;;;;;;7.95;3.47;;;;;18.70;102511.00;;;;5083085;28;20205;-80
2023/05/31 06:13:47;;;;;;;6.25;3.42;;;;;18.80;102508.00;;;;5084675;28;20194;-80
2023/05/31 06:16:15;;;;;;;6.32;3.63;;;;;18.90;102510.00;;;;5089081;28;20206;-81
2023/05/31 06:18:42;;;;;;;5.53;3.58;;;;;19.00;102514.00;;;;5088276;28;20289;-80
2023/05/31 06:21:11;;;;;;;6.07;3.45;;;;;19.00;102513.00;;;;5088495;28;20202;-79
2023/05/31 06:23:38;;;;;;;5.78;3.78;;;;;19.10;102510.00;;;;5086561;28;20202;-79
2023/05/31 06:26:05;;;;;;;6.60;3.95;;;;;19.20;102508.00;;;;5087757;28;20245;-79
2023/05/31 06:28:33;;;;;;;8.70;4.15;;;;;19.30;102506.00;;;;5087992;28;20202;-80
2023/05/31 06:31:00;;;;;;;8.13;5.25;;;;;19.40;102508.00;;;;5088357;28;20209;-80
2023/05/31 06:33:27;;;;;;;6.10;3.90;;;;;19.50;102511.00;;;;5088086;28;20226;-79
2023/05/31 06:35:55;;;;;;;6.38;4.38;;;;;19.60;102519.00;;;;5088229;28;20191;-80
2023/05/31 06:38:24;;;;;;;8.77;5.00;;;;;19.60;102513.00;;;;5087623;28;20288;-80
2023/05/31 06:40:51;;;;;;;5.30;3.67;;;;;19.70;102511.00;;;;5088588;28;20210;-80
2023/05/31 06:43:18;;;;;;;7.05;3.65;;;;;19.90;102516.00;;;;5086471;28;20679;-79
2023/05/31 06:45:46;;;;;;;5.82;3.22;;;;;20.00;102516.00;;;;5086490;28;20699;-78
2023/05/31 06:48:14;;;;;;;6.85;4.28;;;;;20.10;102513.00;;;;5085185;28;20197;-79
2023/05/31 06:50:41;;;;;;;6.50;4.32;;;;;20.20;102517.00;;;;5085017;28;20549;-78
2023/05/31 06:53:12;;;;;;;7.80;3.60;;;;;20.30;102508.00;;;;5084797;28;20209;-78
2023/05/31 06:55:44;;;;;;;5.18;4.05;;;;;20.40;102513.00;;;;5079397;28;20263;-78
2023/05/31 06:58:11;;;;;;;5.32;3.45;;;;;20.50;102516.00;;;;5082442;28;20198;-78
2023/05/31 07:00:39;;;;;;;7.53;4.00;;;;;20.60;102523.00;;;;5076487;28;20264;-78
2023/05/31 07:03:07;;;;;;;4.10;3.28;;;;;20.70;102520.00;;;;5084280;28;20255;-78
2023/05/31 07:05:34;;;;;;;4.85;3.30;;;;;20.80;102518.00;;;;5070815;28;20207;-78
2023/05/31 07:08:02;;;;;;;7.20;3.97;;;;;20.90;102518.00;;;;5074929;28;20207;-78
2023/05/31 07:10:29;;;;;;;4.65;3.10;;;;;21.00;102513.00;;;;5073245;28;20199;-78
2023/05/31 07:12:58;;;;;;;8.38;4.50;;;;;21.00;102514.00;;;;5078249;28;20193;-79
2023/05/31 07:15:27;;;;;;;4.90;3.78;;;;;21.20;102511.00;;;;5079426;28;20198;-79
2023/05/31 07:17:54;;;;;;;6.13;4.18;;;;;21.20;102517.00;;;;5083253;28;20290;-79
2023/05/31 07:20:22;;;;;;;7.35;3.50;;;;;21.30;102514.00;;;;5079711;28;20191;-79
2023/05/31 07:22:50;;;;;;;6.93;3.40;;;;;21.40;102514.00;;;;5076596;28;20191;-78
2023/05/31 07:25:18;;;;;;;5.00;3.28;;;;;21.50;102509.00;;;;5056377;28;20207;-79
2023/05/31 07:27:45;;;;;;;6.20;3.58;;;;;21.60;102512.00;;;;5076531;28;20240;-79
2023/05/31 07:30:14;;;;;;;4.72;3.38;;;;;21.70;102514.00;;;;5078752;28;20204;-79
2023/05/31 07:32:41;;;;;;;4.40;2.72;;;;;21.90;102516.00;;;;5073311;28;20233;-79
2023/05/31 07:35:09;;;;;;;5.68;3.58;;;;;22.00;102507.00;;;;5079700;28;20209;-79
2023/05/31 07:37:36;;;;;;;6.03;3.30;;;;;22.10;102515.00;;;;5073213;28;20195;-78
2023/05/31 07:40:05;;;;;;;4.22;3.33;;;;;22.20;102517.00;;;;5072939;28;20191;-78
2023/05/31 07:42:32;;;;;;;6.93;3.53;;;;;22.30;102515.00;;;;5073428;28;20217;-79
2023/05/31 07:45:00;;;;;;;6.25;3.17;;;;;22.40;102516.00;;;;5075597;28;20200;-79
2023/05/31 07:47:29;;;;;;;5.75;2.92;;;;;22.50;102516.00;;;;5078055;28;20217;-79
2023/05/31 07:49:57;;;;;;;5.35;3.20;;;;;22.60;102511.00;;;;5081796;28;20632;-79
2023/05/31 07:52:24;;;;;;;4.57;3.22;;;;;22.70;102514.00;;;;5076660;28;20199;-78
2023/05/31 07:54:51;;;;;;;7.82;3.75;;;;;22.80;102506.00;;;;5077938;28;20566;-79
2023/05/31 07:57:18;;;;;;;6.35;3.55;;;;;22.90;102509.00;;;;5083134;28;20201;-79
2023/05/31 07:59:46;;;;;;;7.20;3.45;;;;;23.00;102505.00;;;;5081446;28;20214;-79
2023/05/31 08:02:13;;;;;;;6.00;3.38;;;;;23.10;102502.00;;;;5080579;28;20199;-79
2023/05/31 08:04:43;;;;;;;4.97;3.20;;;;;23.20;102502.00;;;;5080770;28;20187;-79
2023/05/31 08:07:10;;;;;;;5.97;3.17;;;;;23.30;102496.00;;;;5080486;28;20245;-79
2023/05/31 08:09:37;;;;;;;4.70;3.05;;;;;23.40;102493.00;;;;5079892;28;20198;-79
2023/05/31 08:12:06;;;;;;;6.65;3.10;;;;;23.50;102493.00;;;;5083143;28;20689;-78
2023/05/31 08:14:33;;;;;;;5.53;3.03;;;;;23.60;102498.00;;;;5082787;28;20197;-79
2023/05/31 08:17:00;;;;;;;6.03;3.38;;;;;23.70;102492.00;;;;5080234;28;20195;-78
2023/05/31 08:19:28;;;;;;;8.23;3.22;;;;;23.80;102499.00;;;;5079591;28;20201;-79
2023/05/31 08:21:56;;;;;;;4.60;3.38;;;;;23.90;102498.00;;;;5081403;28;20190;-79
2023/05/31 08:24:24;;;;;;;4.18;2.70;;;;;24.00;102493.00;;;;5077153;28;20200;-78
2023/05/31 08:26:51;;;;;;;4.10;3.08;;;;;24.10;102486.00;;;;5075296;28;20218;-79
2023/05/31 08:29:18;;;;;;;3.88;2.97;;;;;24.30;102482.00;;;;5077155;28;20187;-78
2023/05/31 08:31:46;;;;;;;4.68;3.20;;;;;24.40;102481.00;;;;5083172;28;20191;-78
2023/05/31 08:34:13;;;;;;;5.32;2.85;;;;;24.50;102480.00;;;;5075109;28;20226;-78
2023/05/31 08:36:41;;;;;;;6.28;2.97;;;;;24.60;102488.00;;;;5076909;28;20191;-79
2023/05/31 08:39:10;;;;;;;4.93;3.22;;;;;24.70;102480.00;;;;5080759;28;20226;-79
2023/05/31 08:41:45;;;;;;;4.22;2.70;;;;;24.80;102481.00;;;;5079741;28;20213;-78
2023/05/31 08:44:13;;;;;;;4.93;2.65;;;;;25.00;102492.00;;;;5080752;28;20587;-78
2023/05/31 08:46:40;;;;;;;4.95;3.00;;;;;25.20;102493.00;;;;5078774;28;20738;-79
2023/05/31 08:49:11;;;;;;;8.00;2.70;;;;;25.30;102492.00;;;;5088507;28;20206;-79
2023/05/31 08:51:40;;;;;;;11.38;2.70;;;;;25.40;102485.00;;;;5088703;28;20282;-78
2023/05/31 08:54:11;;;;;;;5.85;2.35;;;;;25.50;102482.00;;;;5089014;28;20214;-78
2023/05/31 08:56:39;;;;;;;4.25;2.15;;;;;25.70;102475.00;;;;5087139;28;20194;-78
2023/05/31 08:59:12;;;;;;;3.85;2.35;;;;;25.70;102477.00;;;;5088692;28;20249;-78
2023/05/31 09:01:41;;;;;;;4.78;2.42;;;;;25.90;102476.00;;;;5090295;28;20198;-77
2023/05/31 09:04:08;;;;;;;9.02;3.58;;;;;26.00;102473.00;;;;5088080;28;20209;-78
2023/05/31 09:06:36;;;;;;;3.70;2.35;;;;;26.10;102475.00;;;;5087739;28;20222;-79
2023/05/31 09:09:03;;;;;;;4.60;2.40;;;;;26.30;102473.00;;;;5089396;28;20209;-79
2023/05/31 09:11:33;;;;;;;5.05;2.63;;;;;26.40;102470.00;;;;5089569;28;20198;-79
2023/05/31 09:14:00;;;;;;;3.05;2.25;;;;;26.50;102469.00;;;;5089894;28;20203;-79
2023/05/31 09:16:29;;;;;;;5.75;2.83;;;;;26.70;102474.00;;;;5088862;28;20213;-78
2023/05/31 09:19:02;;;;;;;5.30;2.42;;;;;26.80;102480.00;;;;5090271;28;20198;-78
2023/05/31 09:21:30;;;;;;;5.93;2.60;;;;;26.90;102473.00;;;;5089401;28;20210;-79
2023/05/31 09:23:59;;;;;;;6.32;2.90;;;;;27.00;102467.00;;;;5088019;28;20565;-78
2023/05/31 09:26:28;;;;;;;5.20;2.63;;;;;27.10;102472.00;;;;5089319;28;20214;-78
2023/05/31 09:28:57;;;;;;;3.70;2.53;;;;;27.20;102466.00;;;;5090148;28;20201;-78
2023/05/31 09:31:25;;;;;;;3.47;2.20;;;;;27.30;102468.00;;;;5081541;28;20229;-78
2023/05/31 09:33:54;;;;;;;4.90;2.80;;;;;27.40;102461.00;;;;5086043;28;20222;-79
2023/05/31 09:36:26;;;;;;;5.18;3.00;;;;;27.40;102464.00;;;;5088515;28;20297;-79
2023/05/31 09:39:01;;;;;;;4.40;2.63;;;;;27.50;102465.00;;;;5084220;28;20283;-79
2023/05/31 09:41:29;;;;;;;5.15;2.67;;;;;27.60;102460.00;;;;5080893;28;20186;-78
2023/05/31 09:43:58;;;;;;;3.42;2.53;;;;;27.60;102454.00;;;;5079206;28;20213;-78
2023/05/31 09:46:26;;;;;;;5.20;2.53;;;;;27.70;102453.00;;;;5088752;28;20414;-79
2023/05/31 09:49:00;;;;;;;6.28;2.92;;;;;27.80;102462.00;;;;5088409;28;20528;-78
2023/05/31 09:51:27;;;;;;;5.50;2.72;;;;;27.90;102451.00;;;;5084655;28;20648;-79
2023/05/31 09:53:56;;;;;;;4.13;2.42;;;;;28.00;102459.00;;;;5088951;28;20475;-79
2023/05/31 09:56:27;;;;;;;4.10;2.50;;;;;28.00;102459.00;;;;5088034;28;20672;-78
2023/05/31 09:58:58;;;;;;;7.10;2.58;;;;;28.00;102454.00;;;;5088937;28;20841;-79
2023/05/31 10:01:26;;;;;;;4.15;2.78;;;;;28.10;102454.00;;;;5084209;28;20201;-78
2023/05/31 10:03:54;;;;;;;5.05;3.13;;;;;28.20;102446.00;;;;5088256;28;20202;-79
2023/05/31 10:06:22;;;;;;;3.67;2.60;;;;;28.30;102452.00;;;;5085412;28;20605;-79
2023/05/31 10:08:50;;;;;;;4.35;2.97;;;;;28.30;102447.00;;;;5086426;28;20234;-78
2023/05/31 10:11:20;;;;;;;5.55;2.95;;;;;28.40;102443.00;;;;5082054;28;20195;-79
2023/05/31 10:13:53;;;;;;;3.88;2.45;;;;;28.40;102444.00;;;;5068171;28;20410;-80
2023/05/31 10:16:24;;;;;;;5.70;3.08;;;;;28.50;102438.00;;;;5081149;28;20209;-79
2023/05/31 10:18:54;;;;;;;4.93;3.15;;;;;28.60;102437.00;;;;5078137;28;20210;-78
2023/05/31 10:21:25;;;;;;;5.50;3.03;;;;;28.60;102430.00;;;;5079328;28;20732;-77
2023/05/31 10:24:02;;;;;;;4.82;2.92;;;;;28.60;102435.00;;;;5085976;28;20259;-81
2023/05/31 10:26:36;;;;;;;6.15;2.63;;;;;28.60;102429.00;;;;5087234;28;20194;-77
2023/05/31 10:29:11;;;;;;;4.00;3.13;;;;;28.60;102431.00;;;;5087800;28;20194;-83
2023/05/31 10:31:46;;;;;;;3.33;2.50;;;;;28.70;102422.00;;;;5080382;28;20198;-82
2023/05/31 10:34:20;;;;;;;4.15;2.63;;;;;28.80;102429.00;;;;5085855;28;20711;-81
2023/05/31 10:36:47;;;;;;;4.88;2.88;;;;;28.90;102415.00;;;;5080873;28;20195;-80
2023/05/31 10:39:25;;;;;;;5.53;2.75;;;;;28.90;102428.00;;;;5079706;28;20186;-75
2023/05/31 10:41:59;;;;;;;5.40;2.80;;;;;29.00;102427.00;;;;5083784;28;20190;-75
2023/05/31 10:44:34;;;;;;;5.05;2.72;;;;;29.00;102423.00;;;;5086194;28;20247;-76
2023/05/31 10:47:09;;;;;;;6.63;2.33;;;;;29.10;102418.00;;;;5087132;28;20218;-75
2023/05/31 10:49:40;;;;;;;3.50;2.50;;;;;29.10;102420.00;;;;5088204;28;20667;-74
2023/05/31 10:52:09;;;;;;;3.95;2.30;;;;;29.20;102411.00;;;;5087229;28;20607;-76
2023/05/31 10:54:37;;;;;;;4.25;2.72;;;;;29.20;102417.00;;;;5087640;28;20226;-76
2023/05/31 10:57:06;;;;;;;2.80;2.00;;;;;29.20;102410.00;;;;5079565;28;20202;-75
2023/05/31 10:59:42;;;;;;;3.53;2.42;;;;;29.20;102400.00;;;;5087432;28;20209;-75
2023/05/31 11:02:12;;;;;;;4.70;2.58;;;;;29.30;102406.00;;;;5086840;28;20255;-76
2023/05/31 11:04:39;;;;;;;7.78;3.13;;;;;29.30;102405.00;;;;5085463;28;20198;-77
2023/05/31 11:07:17;;;;;;;3.72;3.15;;;;;29.20;102399.00;;;;5084073;28;20293;-76
2023/05/31 11:09:59;;;;;;;5.90;3.03;;;;;29.20;102393.00;;;;5087123;28;20190;-77
2023/05/31 11:12:37;;;;;;;3.20;2.58;;;;;29.30;102387.00;;;;5074887;28;20203;-76
2023/05/31 11:15:06;;;;;;;5.00;2.58;;;;;29.30;102390.00;;;;5084749;28;20206;-77
2023/05/31 11:17:51;;;;;;;6.28;2.70;;;;;29.20;102391.00;;;;5086675;28;20194;-76
2023/05/31 11:20:20;;;;;;;4.18;2.92;;;;;29.30;102388.00;;;;5084390;28;20186;-77
2023/05/31 11:22:47;;;;;;;5.15;2.92;;;;;29.40;102393.00;;;;5086866;28;20195;-77
2023/05/31 11:25:22;;;;;;;4.57;2.05;;;;;29.30;102390.00;;;;5071746;28;20211;-77
2023/05/31 11:28:05;;;;;;;3.85;3.08;;;;;29.30;102385.00;;;;5089820;28;20217;-78
2023/05/31 11:30:37;;;;;;;4.22;2.30;;;;;29.30;102381.00;;;;5089633;28;20201;-77
2023/05/31 11:33:15;;;;;;;2.40;2.20;;;;;29.20;102378.00;;;;5080349;28;20222;-77
2023/05/31 11:35:42;;;;;;;3.65;2.40;;;;;29.40;102381.00;;;;5091471;28;20202;-77
2023/05/31 11:38:10;;;;;;;6.30;2.50;;;;;29.40;102375.00;;;;5090423;28;20206;-77
2023/05/31 11:40:37;;;;;;;4.35;2.78;;;;;29.40;102371.00;;;;5090754;28;20202;-77
2023/05/31 11:43:06;;;;;;;5.57;3.03;;;;;29.40;102373.00;;;;5086396;28;20221;-77
2023/05/31 11:45:35;;;;;;;4.97;2.60;;;;;29.40;102377.00;;;;5090333;28;20199;-77
2023/05/31 11:48:45;;;;;;;4.05;2.70;;;;;29.30;102365.00;;;;5087960;28;20226;-76
2023/05/31 11:51:14;;;;;;;4.40;2.40;;;;;29.40;102368.00;;;;5088383;28;20263;-77
2023/05/31 11:53:41;;;;;;;4.18;2.15;;;;;29.50;102371.00;;;;5089880;28;20550;-76
2023/05/31 11:56:12;;;;;;;4.20;2.47;;;;;29.40;102368.00;;;;5089684;28;20201;-77
2023/05/31 11:58:39;;;;;;;5.28;2.92;;;;;29.50;102360.00;;;;5080807;28;20202;-76
2023/05/31 12:01:08;;;;;;;4.28;2.53;;;;;29.50;102364.00;;;;5083577;28;20198;-76
2023/05/31 12:03:41;;;;;;;3.50;2.40;;;;;29.50;102359.00;;;;5085374;28;20205;-77
2023/05/31 12:06:08;;;;;;;6.75;3.28;;;;;29.60;102350.00;;;;5087121;28;20664;-76
2023/05/31 12:08:36;;;;;;;5.25;2.33;;;;;29.60;102352.00;;;;5089760;28;20249;-76
2023/05/31 12:11:05;;;;;;;6.28;2.72;;;;;29.60;102345.00;;;;5090301;28;20204;-75
2023/05/31 12:13:33;;;;;;;5.10;2.70;;;;;29.60;102345.00;;;;5088304;28;20794;-75
2023/05/31 12:16:00;;;;;;;3.40;2.30;;;;;29.60;102337.00;;;;5089315;28;20206;-74